Time;durP1;ratioP1;P1;durP2;ratioP2;P2;SDS_P1;SDS_P2;PMS_P1;PMS_P2;Temp;Humidity;BMP_temperature;BMP_pressure;BME280_temperature;BME280_humidity;BME280_pressure;Samples;Min_cycle;Max_cycle;Signal;HPM_P1;HPM_P2
2023/05/18 00:00:20;;;;;;;7.87;4.40;;;10.50;99.90;;;;;;5032168;28;20467;-82
2023/05/18 00:02:47;;;;;;;9.13;3.30;;;10.50;99.90;;;;;;5042420;28;20211;-79
2023/05/18 00:05:12;;;;;;;4.43;2.60;;;10.50;99.90;;;;;;5037621;28;20479;-82
2023/05/18 00:07:39;;;;;;;11.27;3.90;;;10.40;99.90;;;;;;5044199;28;20433;-82
2023/05/18 00:10:06;;;;;;;11.33;3.87;;;10.40;99.90;;;;;;5025132;28;20183;-81
2023/05/18 00:12:31;;;;;;;8.77;3.23;;;10.40;99.90;;;;;;5026211;28;20441;-83
2023/05/18 00:14:57;;;;;;;7.47;3.17;;;10.40;99.90;;;;;;5042384;28;20471;-83
2023/05/18 00:17:23;;;;;;;6.70;3.07;;;10.30;99.90;;;;;;5040443;28;20206;-82
2023/05/18 00:19:49;;;;;;;7.10;3.70;;;10.30;99.90;;;;;;5041301;28;20229;-82
2023/05/18 00:22:17;;;;;;;8.85;3.88;;;10.30;99.90;;;;;;5040445;28;20209;-81
2023/05/18 00:24:45;;;;;;;8.10;3.03;;;10.20;99.90;;;;;;5029033;28;20214;-81
2023/05/18 00:27:10;;;;;;;14.30;3.87;;;10.20;99.90;;;;;;5045877;28;20428;-81
2023/05/18 00:29:36;;;;;;;13.20;4.27;;;10.20;99.90;;;;;;5046063;28;20443;-81
2023/05/18 00:32:01;;;;;;;6.90;3.70;;;10.10;99.90;;;;;;5046248;28;20174;-81
2023/05/18 00:34:27;;;;;;;6.93;3.17;;;10.10;99.90;;;;;;5040343;28;20691;-81
2023/05/18 00:36:52;;;;;;;5.40;3.00;;;10.10;99.90;;;;;;5039587;28;20216;-82
2023/05/18 00:39:18;;;;;;;12.83;3.90;;;10.00;99.90;;;;;;5042416;28;20228;-80
2023/05/18 00:41:44;;;;;;;8.70;3.30;;;10.00;99.90;;;;;;5026832;28;20197;-80
2023/05/18 00:44:09;;;;;;;6.03;3.63;;;10.00;99.90;;;;;;5030258;28;20755;-82
2023/05/18 00:46:35;;;;;;;7.53;3.03;;;10.00;99.90;;;;;;5037621;28;20205;-81
2023/05/18 00:49:01;;;;;;;6.13;3.50;;;10.00;99.90;;;;;;5041043;28;20279;-81
2023/05/18 00:51:27;;;;;;;11.68;4.00;;;9.90;99.90;;;;;;5039280;28;20186;-80
2023/05/18 00:53:54;;;;;;;9.35;3.67;;;9.90;99.90;;;;;;5034500;28;20209;-81
2023/05/18 00:56:25;;;;;;;10.02;3.60;;;9.90;99.90;;;;;;5043602;28;20481;-81
2023/05/18 00:58:55;;;;;;;9.53;4.33;;;9.90;99.90;;;;;;5043573;28;20240;-81
2023/05/18 01:01:27;;;;;;;15.73;4.17;;;9.90;99.90;;;;;;5034948;28;20422;-81
2023/05/18 01:03:55;;;;;;;9.93;3.70;;;9.90;99.90;;;;;;5045756;28;20453;-82
2023/05/18 01:06:24;;;;;;;7.32;2.72;;;9.80;99.90;;;;;;5047411;28;20183;-81
2023/05/18 01:08:50;;;;;;;10.20;3.70;;;9.80;99.90;;;;;;5037128;28;20194;-78
2023/05/18 01:11:31;;;;;;;7.25;4.05;;;9.70;99.90;;;;;;5044175;28;20202;-81
2023/05/18 01:14:08;;;;;;;6.00;3.10;;;9.70;99.90;;;;;;5037997;28;20206;-82
2023/05/18 01:16:42;;;;;;;14.77;6.03;;;9.70;99.90;;;;;;5043899;28;20228;-79
2023/05/18 01:19:40;;;;;;;11.73;3.33;;;9.60;99.90;;;;;;5037038;28;20467;-81
2023/05/18 01:22:20;;;;;;;10.18;3.65;;;9.60;99.90;;;;;;5033460;28;20178;-81
2023/05/18 01:24:48;;;;;;;12.98;3.63;;;9.50;99.90;;;;;;5045751;28;20205;-82
2023/05/18 01:27:16;;;;;;;6.05;3.72;;;9.40;99.90;;;;;;5034071;28;20190;-79
2023/05/18 01:29:44;;;;;;;9.15;4.05;;;9.40;99.90;;;;;;5044018;28;20187;-82
2023/05/18 01:32:20;;;;;;;18.80;3.75;;;9.40;99.90;;;;;;5039527;28;20182;-79
2023/05/18 01:34:47;;;;;;;9.90;3.22;;;9.30;99.90;;;;;;5041906;28;20209;-79
2023/05/18 01:37:13;;;;;;;9.13;3.65;;;9.30;99.90;;;;;;5047473;28;20603;-81
2023/05/18 01:39:40;;;;;;;6.97;3.63;;;9.30;99.90;;;;;;5037853;28;20194;-81
2023/05/18 01:42:11;;;;;;;12.18;3.80;;;9.30;99.90;;;;;;5044510;28;20189;-79
2023/05/18 01:44:44;;;;;;;6.53;3.20;;;9.30;99.90;;;;;;5038244;28;20742;-79
2023/05/18 01:47:15;;;;;;;7.93;4.07;;;9.20;99.90;;;;;;5045549;28;20279;-82
2023/05/18 01:49:50;;;;;;;11.27;3.90;;;9.10;99.90;;;;;;5043487;28;20190;-80
2023/05/18 01:52:28;;;;;;;5.93;3.10;;;9.10;99.90;;;;;;5036786;28;20175;-82
2023/05/18 01:54:56;;;;;;;10.75;3.72;;;9.00;99.90;;;;;;5027625;28;20221;-82
2023/05/18 01:57:25;;;;;;;8.00;3.47;;;9.00;99.90;;;;;;5028712;28;20179;-80
2023/05/18 01:59:53;;;;;;;9.13;4.25;;;9.00;99.90;;;;;;5040300;28;20186;-80
2023/05/18 02:02:19;;;;;;;15.00;4.95;;;8.90;99.90;;;;;;5033243;28;20175;-81
2023/05/18 02:04:44;;;;;;;8.30;3.65;;;8.90;99.90;;;;;;5034761;28;20553;-81
2023/05/18 02:07:10;;;;;;;7.60;4.23;;;8.90;99.90;;;;;;5036083;28;20195;-79
2023/05/18 02:09:36;;;;;;;11.67;4.30;;;8.90;99.90;;;;;;5041260;28;20544;-82
2023/05/18 02:12:01;;;;;;;8.43;3.70;;;8.90;99.90;;;;;;5035111;28;20181;-80
2023/05/18 02:14:27;;;;;;;6.70;3.47;;;8.90;99.90;;;;;;5031184;28;20198;-80
2023/05/18 02:16:54;;;;;;;9.30;3.87;;;8.80;99.90;;;;;;5043888;28;20182;-81
2023/05/18 02:19:21;;;;;;;10.07;3.38;;;8.80;99.90;;;;;;5040147;28;20186;-81
2023/05/18 02:21:47;;;;;;;9.63;3.40;;;8.80;99.90;;;;;;5043679;28;20197;-81
2023/05/18 02:24:13;;;;;;;8.93;3.60;;;8.80;99.90;;;;;;5025568;28;20206;-81
2023/05/18 02:26:38;;;;;;;15.37;4.10;;;8.70;99.90;;;;;;5031374;28;20183;-81
2023/05/18 02:29:05;;;;;;;7.87;4.13;;;8.70;99.90;;;;;;5032550;28;20186;-82
2023/05/18 02:31:31;;;;;;;15.15;3.35;;;8.70;99.90;;;;;;5041649;28;20186;-82
2023/05/18 02:33:57;;;;;;;8.50;3.03;;;8.70;99.90;;;;;;5034511;28;20219;-79
2023/05/18 02:36:22;;;;;;;8.10;3.33;;;8.70;99.90;;;;;;5042352;28;20190;-81
2023/05/18 02:38:48;;;;;;;8.30;3.43;;;8.70;99.90;;;;;;5036839;28;20422;-79
2023/05/18 02:41:14;;;;;;;6.80;3.80;;;8.60;99.90;;;;;;5032338;28;20186;-80
2023/05/18 02:43:39;;;;;;;12.73;3.77;;;8.60;99.90;;;;;;5032979;28;20242;-82
2023/05/18 02:46:05;;;;;;;7.10;4.10;;;8.60;99.90;;;;;;5036515;28;20488;-79
2023/05/18 02:48:31;;;;;;;10.37;4.47;;;8.50;99.90;;;;;;5029481;28;20202;-82
2023/05/18 02:50:57;;;;;;;5.70;3.73;;;8.50;99.90;;;;;;5034019;28;20193;-82
2023/05/18 02:53:23;;;;;;;7.82;3.83;;;8.50;99.90;;;;;;5039594;28;20195;-81
2023/05/18 02:55:48;;;;;;;8.33;3.77;;;8.50;99.90;;;;;;5043391;28;20191;-80
2023/05/18 02:58:14;;;;;;;7.63;3.77;;;8.40;99.90;;;;;;5045591;28;20284;-81
2023/05/18 03:00:40;;;;;;;6.32;3.08;;;8.40;99.90;;;;;;5037891;28;20182;-82
2023/05/18 03:03:09;;;;;;;6.63;3.60;;;8.40;99.90;;;;;;5041646;28;20236;-80
2023/05/18 03:05:36;;;;;;;9.45;3.78;;;8.40;99.90;;;;;;5039523;28;20418;-81
2023/05/18 03:08:02;;;;;;;6.78;3.15;;;8.40;99.90;;;;;;5027959;28;20184;-81
2023/05/18 03:10:27;;;;;;;7.93;4.10;;;8.30;99.90;;;;;;5044086;28;20261;-82
2023/05/18 03:12:53;;;;;;;7.60;4.00;;;8.30;99.90;;;;;;5034879;28;20444;-80
2023/05/18 03:15:19;;;;;;;6.03;3.97;;;8.20;1.00;;;;;;5045541;28;20269;-81
2023/05/18 03:17:45;;;;;;;12.68;4.60;;;8.20;1.00;;;;;;5045474;28;20717;-81
2023/05/18 03:20:13;;;;;;;6.28;3.83;;;8.20;1.00;;;;;;5024876;28;20186;-80
2023/05/18 03:22:38;;;;;;;8.30;4.18;;;8.10;1.00;;;;;;5030309;28;20178;-81
2023/05/18 03:25:04;;;;;;;9.73;4.60;;;8.10;1.00;;;;;;5039519;28;20226;-81
2023/05/18 03:27:30;;;;;;;8.13;4.90;;;8.10;1.00;;;;;;5030522;28;20183;-81
2023/05/18 03:29:56;;;;;;;8.17;4.67;;;8.10;1.00;;;;;;5026182;28;20277;-81
2023/05/18 03:32:23;;;;;;;12.80;4.53;;;8.00;1.00;;;;;;5037603;28;20196;-80
2023/05/18 03:34:50;;;;;;;12.07;4.10;;;8.00;1.00;;;;;;5029073;28;20446;-81
2023/05/18 03:37:16;;;;;;;7.50;4.50;;;7.90;1.00;;;;;;5029779;28;20236;-82
2023/05/18 03:39:42;;;;;;;7.50;3.90;;;7.90;1.00;;;;;;5044582;28;20186;-80
2023/05/18 03:42:08;;;;;;;5.80;4.53;;;8.00;1.00;;;;;;5037191;28;20208;-79
2023/05/18 03:44:33;;;;;;;8.13;4.10;;;8.00;1.00;;;;;;5039978;28;20465;-81
2023/05/18 03:46:59;;;;;;;10.33;4.23;;;8.00;1.00;;;;;;5035871;28;20182;-81
2023/05/18 03:49:24;;;;;;;11.77;4.17;;;8.00;1.00;;;;;;5043254;28;20260;-80
2023/05/18 03:51:53;;;;;;;15.90;4.67;;;8.00;1.00;;;;;;5037435;28;20964;-79
2023/05/18 03:54:18;;;;;;;12.77;5.18;;;8.00;1.00;;;;;;5032723;28;20207;-79
2023/05/18 03:56:45;;;;;;;10.53;3.97;;;8.00;1.00;;;;;;5037355;28;20683;-79
2023/05/18 03:59:11;;;;;;;7.82;4.70;;;8.00;1.00;;;;;;5046153;28;20190;-80
2023/05/18 04:01:37;;;;;;;7.77;5.00;;;8.10;1.00;;;;;;5043200;28;20204;-79
2023/05/18 04:04:02;;;;;;;8.73;4.83;;;8.10;1.00;;;;;;5038602;28;20232;-80
2023/05/18 04:06:28;;;;;;;10.80;4.90;;;8.10;1.00;;;;;;5050082;28;20178;-80
2023/05/18 04:08:54;;;;;;;10.30;4.23;;;8.20;1.00;;;;;;5050832;28;20419;-80
2023/05/18 04:11:21;;;;;;;9.53;4.53;;;8.20;1.00;;;;;;5050358;28;20404;-79
2023/05/18 04:13:48;;;;;;;11.80;4.38;;;8.30;1.00;;;;;;5044890;28;20198;-79
2023/05/18 04:16:14;;;;;;;15.63;7.40;;;8.40;1.00;;;;;;5050518;28;20173;-80
2023/05/18 04:18:40;;;;;;;17.07;4.90;;;8.50;1.00;;;;;;5049904;28;20627;-81
2023/05/18 04:21:06;;;;;;;9.93;5.47;;;8.60;1.00;;;;;;5047674;28;20431;-81
2023/05/18 04:23:37;;;;;;;8.03;4.17;;;8.70;1.00;;;;;;5035554;28;20270;-81
2023/05/18 04:26:04;;;;;;;15.68;4.93;;;8.80;1.00;;;;;;5049685;28;20182;-79
2023/05/18 04:28:30;;;;;;;9.73;4.47;;;8.80;1.00;;;;;;5050437;28;20198;-79
2023/05/18 04:30:55;;;;;;;11.43;5.30;;;8.90;1.00;;;;;;5045323;28;20174;-79
2023/05/18 04:33:21;;;;;;;11.13;4.57;;;9.10;1.00;;;;;;5045152;28;20197;-81
2023/05/18 04:35:47;;;;;;;9.90;4.50;;;9.10;1.00;;;;;;5050358;28;20186;-81
2023/05/18 04:38:13;;;;;;;7.60;4.43;;;9.20;1.00;;;;;;5046933;28;20265;-78
2023/05/18 04:40:41;;;;;;;9.48;4.57;;;9.40;1.00;;;;;;5049272;28;20429;-81
2023/05/18 04:43:07;;;;;;;10.98;5.03;;;9.50;99.90;;;;;;5048207;28;20205;-80
2023/05/18 04:45:32;;;;;;;7.23;4.53;;;9.60;99.90;;;;;;5048895;28;20205;-84
2023/05/18 04:47:58;;;;;;;8.83;5.23;;;9.70;99.90;;;;;;5050019;28;20178;-80
2023/05/18 04:50:23;;;;;;;13.03;5.70;;;9.90;99.90;;;;;;5046827;28;20262;-79
2023/05/18 04:52:50;;;;;;;7.03;4.97;;;10.00;99.90;;;;;;5048671;28;20194;-80
2023/05/18 04:55:21;;;;;;;7.03;4.23;;;10.10;99.90;;;;;;5049253;28;20186;-79
2023/05/18 04:57:49;;;;;;;9.77;4.80;;;10.20;99.90;;;;;;5048994;28;20492;-82
2023/05/18 05:00:15;;;;;;;10.20;5.43;;;10.30;99.90;;;;;;5050380;28;20445;-81
2023/05/18 05:02:41;;;;;;;9.07;5.27;;;10.30;99.90;;;;;;5049946;28;20496;-81
2023/05/18 05:05:07;;;;;;;13.93;6.67;;;10.50;99.90;;;;;;5049937;28;20563;-81
2023/05/18 05:07:33;;;;;;;8.30;5.33;;;10.60;99.90;;;;;;5050415;28;20186;-80
2023/05/18 05:09:58;;;;;;;12.50;5.40;;;10.70;99.90;;;;;;5042908;28;20536;-80
2023/05/18 05:12:23;;;;;;;17.53;5.30;;;10.90;99.90;;;;;;5038419;28;20209;-81
2023/05/18 05:14:49;;;;;;;9.03;5.33;;;11.00;99.90;;;;;;5038801;28;20214;-82
2023/05/18 05:17:15;;;;;;;17.87;5.20;;;11.20;99.90;;;;;;5036564;28;20808;-81
2023/05/18 05:19:41;;;;;;;10.13;5.20;;;11.30;99.90;;;;;;5044994;28;20190;-81
2023/05/18 05:22:06;;;;;;;10.63;6.10;;;11.40;99.90;;;;;;5041385;28;20429;-81
2023/05/18 05:24:32;;;;;;;11.13;5.20;;;11.50;99.90;;;;;;5032662;28;20218;-80
2023/05/18 05:26:57;;;;;;;7.10;4.80;;;11.60;99.90;;;;;;5029949;28;20274;-79
2023/05/18 05:29:25;;;;;;;8.30;5.53;;;11.80;99.90;;;;;;5043932;28;20175;-83
2023/05/18 05:31:50;;;;;;;11.03;5.10;;;11.90;99.90;;;;;;5046463;28;20267;-81
2023/05/18 05:34:16;;;;;;;9.40;5.53;;;12.00;99.90;;;;;;5039014;28;20448;-81
2023/05/18 05:36:42;;;;;;;13.23;5.27;;;12.20;99.90;;;;;;5033783;28;20186;-80
2023/05/18 05:39:07;;;;;;;12.90;5.60;;;12.30;99.90;;;;;;5026957;28;20218;-81
2023/05/18 05:41:33;;;;;;;14.80;6.07;;;12.50;99.90;;;;;;5027069;28;20195;-79
2023/05/18 05:43:58;;;;;;;8.13;5.03;;;12.60;99.90;;;;;;5036427;28;20214;-81
2023/05/18 05:46:24;;;;;;;8.60;5.37;;;12.90;99.90;;;;;;5039214;28;20180;-82
2023/05/18 05:48:49;;;;;;;11.10;5.70;;;13.40;99.90;;;;;;5038810;28;20180;-82
2023/05/18 05:51:15;;;;;;;8.00;5.10;;;14.80;99.90;;;;;;5048981;28;20639;-81
2023/05/18 05:53:42;;;;;;;10.00;4.70;;;18.10;99.90;;;;;;5034969;28;20208;-83
2023/05/18 05:56:07;;;;;;;9.40;4.80;;;20.70;99.90;;;;;;5039061;28;20448;-82
2023/05/18 05:58:33;;;;;;;11.90;5.00;;;22.70;99.90;;;;;;5042539;28;20453;-80
2023/05/18 06:00:59;;;;;;;10.20;4.50;;;24.50;99.90;;;;;;5043738;28;20223;-83
2023/05/18 06:03:25;;;;;;;8.43;3.90;;;26.50;99.90;;;;;;5045577;28;20205;-81
2023/05/18 06:05:50;;;;;;;8.07;4.37;;;28.70;99.90;;;;;;5044637;28;20193;-83
2023/05/18 06:08:16;;;;;;;7.03;4.03;;;30.60;99.90;;;;;;5044532;28;20424;-83
2023/05/18 06:10:42;;;;;;;7.73;4.27;;;32.10;99.90;;;;;;5043985;28;20178;-83
2023/05/18 06:13:07;;;;;;;10.60;4.60;;;33.50;99.90;;;;;;5035248;28;20194;-81
2023/05/18 06:15:33;;;;;;;6.83;3.53;;;34.50;99.90;;;;;;5024662;28;20223;-81
2023/05/18 06:17:58;;;;;;;10.83;3.67;;;35.60;99.90;;;;;;5041594;28;20701;-81
2023/05/18 06:20:25;;;;;;;9.10;3.57;;;36.50;99.90;;;;;;5025248;28;20175;-83
2023/05/18 06:22:50;;;;;;;7.73;3.83;;;37.10;99.90;;;;;;5026875;28;20187;-80
2023/05/18 06:25:17;;;;;;;10.00;4.13;;;37.90;99.90;;;;;;5042249;28;20468;-83
2023/05/18 06:27:43;;;;;;;13.27;3.90;;;38.80;99.90;;;;;;5042791;28;20303;-83
2023/05/18 06:30:09;;;;;;;8.13;3.40;;;40.00;99.90;;;;;;5039111;28;20452;-83
2023/05/18 06:32:36;;;;;;;8.90;3.80;;;41.40;99.90;;;;;;5041251;28;20444;-83
2023/05/18 06:35:02;;;;;;;6.83;3.63;;;42.60;99.90;;;;;;5034665;28;20540;-83
2023/05/18 06:37:28;;;;;;;8.17;3.00;;;43.80;99.90;;;;;;5031715;28;20483;-83
2023/05/18 06:39:54;;;;;;;6.80;3.50;;;44.80;98.50;;;;;;5030840;28;20840;-83
2023/05/18 06:42:19;;;;;;;6.43;2.93;;;45.30;93.70;;;;;;5035182;28;20266;-84
2023/05/18 06:44:45;;;;;;;8.70;3.50;;;46.00;90.70;;;;;;5044570;28;20224;-84
2023/05/18 06:47:11;;;;;;;7.27;3.90;;;47.00;86.70;;;;;;5036812;28;20196;-83
2023/05/18 06:49:36;;;;;;;6.40;3.17;;;48.10;80.40;;;;;;5042798;28;20189;-84
2023/05/18 06:52:02;;;;;;;5.43;3.37;;;49.20;77.10;;;;;;5039885;28;20185;-81
2023/05/18 06:54:28;;;;;;;5.60;3.10;;;50.10;71.90;;;;;;5037523;28;20234;-82
2023/05/18 06:56:54;;;;;;;5.97;2.77;;;50.90;67.00;;;;;;5018680;28;20190;-78
2023/05/18 06:59:21;;;;;;;8.97;3.37;;;51.40;61.60;;;;;;5034268;28;20203;-80
2023/05/18 07:01:46;;;;;;;5.13;3.07;;;51.80;57.20;;;;;;5043033;28;20181;-80
2023/05/18 07:04:12;;;;;;;8.45;3.13;;;52.30;53.90;;;;;;5040847;28;20212;-82
2023/05/18 07:06:37;;;;;;;8.20;3.20;;;52.30;49.60;;;;;;5041539;28;20197;-82
2023/05/18 07:09:03;;;;;;;6.43;3.40;;;51.90;45.80;;;;;;5028827;28;20202;-80
2023/05/18 07:11:29;;;;;;;5.50;2.70;;;51.30;40.90;;;;;;5039932;28;20178;-82
2023/05/18 07:13:55;;;;;;;7.30;3.80;;;50.60;38.00;;;;;;5037774;28;20288;-81
2023/05/18 07:16:20;;;;;;;6.57;3.20;;;50.60;36.30;;;;;;5039994;28;20720;-83
2023/05/18 07:18:46;;;;;;;8.60;3.50;;;50.70;34.80;;;;;;5033811;28;20169;-82
2023/05/18 07:21:11;;;;;;;7.90;3.50;;;51.30;34.80;;;;;;5042999;28;20177;-82
2023/05/18 07:23:37;;;;;;;6.43;3.30;;;51.30;32.10;;;;;;5041367;28;20198;-80
2023/05/18 07:26:02;;;;;;;7.30;2.93;;;51.20;30.80;;;;;;5029492;28;20202;-81
2023/05/18 07:28:28;;;;;;;5.40;3.00;;;51.00;28.90;;;;;;5033825;28;20181;-83
2023/05/18 07:30:53;;;;;;;5.90;3.10;;;50.50;27.10;;;;;;5042074;28;20241;-83
2023/05/18 07:33:19;;;;;;;10.20;2.90;;;50.80;27.40;;;;;;5041104;28;20209;-83
2023/05/18 07:35:44;;;;;;;6.77;3.10;;;50.70;26.20;;;;;;5043071;28;20204;-82
2023/05/18 07:38:10;;;;;;;5.43;3.13;;;50.00;23.80;;;;;;5041450;28;20198;-82
2023/05/18 07:40:35;;;;;;;6.10;3.07;;;49.20;22.40;;;;;;5040840;28;20201;-80
2023/05/18 07:43:01;;;;;;;7.53;3.00;;;48.60;21.70;;;;;;5040471;28;20201;-83
2023/05/18 07:45:26;;;;;;;9.67;3.63;;;48.30;21.00;;;;;;5042331;28;20189;-83
2023/05/18 07:47:53;;;;;;;6.50;3.33;;;48.70;21.10;;;;;;5041656;28;20274;-83
2023/05/18 07:50:19;;;;;;;8.33;3.03;;;48.60;20.90;;;;;;5039536;28;20193;-83
2023/05/18 07:52:44;;;;;;;6.90;2.80;;;48.30;19.80;;;;;;5039333;28;20440;-83
2023/05/18 07:55:10;;;;;;;8.10;2.97;;;48.60;20.00;;;;;;5040860;28;20220;-81
2023/05/18 07:57:35;;;;;;;8.33;3.40;;;49.40;21.90;;;;;;5034112;28;20269;-81
2023/05/18 08:00:03;;;;;;;7.77;3.40;;;50.30;22.60;;;;;;5037613;28;20185;-81
2023/05/18 08:02:29;;;;;;;6.47;3.13;;;50.80;23.20;;;;;;5037731;28;20173;-82
2023/05/18 08:04:54;;;;;;;8.43;3.37;;;51.00;23.20;;;;;;5038313;28;20509;-81
2023/05/18 08:07:20;;;;;;;5.63;2.87;;;51.30;23.20;;;;;;5036220;28;20189;-82
2023/05/18 08:09:45;;;;;;;5.30;3.07;;;51.70;23.30;;;;;;5037811;28;20186;-82
2023/05/18 08:12:11;;;;;;;8.57;3.40;;;52.00;22.90;;;;;;5034551;28;20647;-83
2023/05/18 08:14:36;;;;;;;5.53;3.20;;;51.80;21.90;;;;;;5037101;28;20267;-83
2023/05/18 08:17:03;;;;;;;5.80;2.73;;;51.70;21.70;;;;;;5030211;28;20188;-83
2023/05/18 08:19:28;;;;;;;6.93;3.33;;;50.60;19.20;;;;;;5039681;28;20523;-84
2023/05/18 08:21:54;;;;;;;7.97;3.17;;;50.70;19.00;;;;;;5035209;28;20562;-82
2023/05/18 08:24:19;;;;;;;4.23;2.70;;;50.20;17.40;;;;;;5037684;28;20220;-83
2023/05/18 08:26:45;;;;;;;7.13;4.00;;;50.80;19.00;;;;;;5040757;28;20181;-84
2023/05/18 08:29:10;;;;;;;8.00;3.23;;;51.10;19.20;;;;;;5032026;28;20192;-83
2023/05/18 08:31:37;;;;;;;6.37;3.27;;;50.80;18.00;;;;;;5039433;28;20185;-83
2023/05/18 08:34:06;;;;;;;5.27;3.07;;;50.80;17.70;;;;;;5035157;28;20202;-84
2023/05/18 08:36:33;;;;;;;5.50;2.17;;;50.40;16.50;;;;;;5037318;28;20462;-83
2023/05/18 08:38:59;;;;;;;4.80;3.10;;;50.10;15.00;;;;;;5041124;28;20429;-83
2023/05/18 08:41:33;;;;;;;7.30;3.33;;;48.70;11.80;;;;;;5030414;28;20421;-82
2023/05/18 08:44:08;;;;;;;7.47;2.87;;;47.00;9.20;;;;;;5021009;28;20278;-84
2023/05/18 08:46:39;;;;;;;6.40;3.30;;;42.70;2.80;;;;;;5032604;28;20488;-84
2023/05/18 08:49:06;;;;;;;6.30;3.37;;;38.80;1.00;;;;;;5027826;28;20939;-85
2023/05/18 08:51:38;;;;;;;7.07;3.60;;;40.20;1.60;;;;;;5024208;28;20421;-85
2023/05/18 08:54:06;;;;;;;5.53;2.90;;;40.00;1.60;;;;;;5023373;28;20473;-84
2023/05/18 08:56:33;;;;;;;4.97;3.10;;;38.80;1.00;;;;;;5023973;28;20911;-86
2023/05/18 08:59:02;;;;;;;6.50;3.20;;;40.00;2.70;;;;;;5023503;28;20433;-85
2023/05/18 09:01:28;;;;;;;7.37;3.37;;;41.40;5.60;;;;;;5036551;28;20765;-84
2023/05/18 09:03:55;;;;;;;8.93;3.60;;;41.70;6.30;;;;;;5027661;28;20939;-83
2023/05/18 09:06:27;;;;;;;5.33;3.37;;;42.00;7.50;;;;;;5024263;28;20488;-83
2023/05/18 09:08:54;;;;;;;7.33;3.63;;;42.80;9.30;;;;;;5024250;28;20857;-85
2023/05/18 09:11:21;;;;;;;7.63;3.23;;;43.00;9.30;;;;;;5025015;28;20426;-82
2023/05/18 09:13:48;;;;;;;6.70;3.47;;;43.50;10.50;;;;;;5023651;28;20525;-85
2023/05/18 09:16:14;;;;;;;6.20;3.23;;;44.10;11.60;;;;;;5024630;28;20429;-85
2023/05/18 09:18:39;;;;;;;5.10;3.10;;;44.30;11.30;;;;;;5022222;28;20426;-85
2023/05/18 09:21:05;;;;;;;8.03;3.80;;;44.40;11.50;;;;;;5037578;28;20620;-85
2023/05/18 09:23:32;;;;;;;7.73;3.03;;;44.70;11.80;;;;;;5025696;28;20206;-85
2023/05/18 09:25:59;;;;;;;5.37;3.10;;;44.60;11.60;;;;;;5024393;28;20504;-85
2023/05/18 09:28:48;;;;;;;10.60;3.13;;;45.10;12.50;;;;;;5024653;28;20429;-83
2023/05/18 09:31:17;;;;;;;10.47;3.83;;;45.80;13.20;;;;;;5039567;28;20421;-82
2023/05/18 09:33:44;;;;;;;7.70;3.27;;;45.30;12.10;;;;;;5031833;28;20462;-82
2023/05/18 09:36:20;;;;;;;11.93;3.33;;;44.50;10.30;;;;;;5035689;28;20433;-83
2023/05/18 09:38:46;;;;;;;5.37;2.73;;;44.40;10.00;;;;;;5029952;28;20428;-83
2023/05/18 09:41:15;;;;;;;5.87;2.57;;;44.40;9.50;;;;;;5023515;28;20417;-83
2023/05/18 09:43:42;;;;;;;8.30;3.40;;;44.00;8.50;;;;;;5023109;28;20210;-82
2023/05/18 09:46:09;;;;;;;8.23;3.50;;;41.80;4.40;;;;;;5023255;28;20887;-82
2023/05/18 09:48:36;;;;;;;11.83;3.67;;;39.20;1.00;;;;;;5023103;28;20487;-83
2023/05/18 09:51:05;;;;;;;6.10;3.40;;;39.00;1.00;;;;;;5024169;28;20453;-82
2023/05/18 09:53:31;;;;;;;7.60;3.57;;;39.60;3.10;;;;;;5042839;28;20452;-84
2023/05/18 09:56:03;;;;;;;6.80;3.83;;;40.50;5.10;;;;;;5042327;28;20460;-84
2023/05/18 09:58:32;;;;;;;4.53;2.90;;;40.90;5.20;;;;;;5040727;28;20580;-85
2023/05/18 10:01:00;;;;;;;8.77;3.70;;;41.40;6.50;;;;;;5035875;28;20857;-84
2023/05/18 10:03:31;;;;;;;6.33;2.87;;;41.30;16.10;;;;;;5041183;28;20433;-85
2023/05/18 10:06:02;;;;;;;7.30;3.23;;;41.00;6.30;;;;;;5021930;28;20525;-85
2023/05/18 10:08:27;;;;;;;7.03;3.33;;;40.70;5.70;;;;;;5029764;28;20893;-85
2023/05/18 10:10:53;;;;;;;6.00;3.10;;;40.20;5.00;;;;;;5023828;28;20496;-84
2023/05/18 10:13:19;;;;;;;5.03;3.00;;;40.50;6.20;;;;;;5022649;28;20191;-84
2023/05/18 10:15:55;;;;;;;5.37;3.13;;;40.60;5.80;;;;;;5022963;28;20231;-85
2023/05/18 10:18:23;;;;;;;6.00;3.07;;;40.80;6.30;;;;;;5021672;28;20488;-85
2023/05/18 10:20:50;;;;;;;8.53;3.30;;;41.30;7.30;;;;;;5023875;28;20414;-84
2023/05/18 10:23:18;;;;;;;6.83;2.97;;;41.90;8.70;;;;;;5025582;28;20492;-86
2023/05/18 10:25:45;;;;;;;5.83;3.47;;;41.90;9.00;;;;;;5026531;28;20429;-84
2023/05/18 10:28:11;;;;;;;7.63;3.17;;;41.00;6.30;;;;;;5022509;28;20426;-85
2023/05/18 10:30:40;;;;;;;4.70;2.87;;;40.70;6.60;;;;;;5033047;28;20428;-85
2023/05/18 10:33:06;;;;;;;10.40;4.30;;;40.30;5.50;;;;;;5042109;28;20181;-85
2023/05/18 10:35:32;;;;;;;5.70;3.50;;;39.60;4.30;;;;;;5023608;28;20916;-85
2023/05/18 10:37:58;;;;;;;9.30;4.07;;;38.60;2.20;;;;;;5022759;28;20175;-85
2023/05/18 10:40:27;;;;;;;6.73;3.40;;;38.10;1.70;;;;;;5021786;28;20473;-85
2023/05/18 10:42:55;;;;;;;6.00;2.90;;;38.20;2.50;;;;;;5030646;28;20476;-83
2023/05/18 10:45:21;;;;;;;8.60;3.37;;;38.30;3.10;;;;;;5021967;28;20473;-85
2023/05/18 10:47:47;;;;;;;8.13;3.67;;;38.60;4.00;;;;;;5022056;28;20425;-84
2023/05/18 10:50:16;;;;;;;7.90;3.40;;;37.40;1.60;;;;;;5030899;28;20422;-85
2023/05/18 10:52:44;;;;;;;6.90;3.67;;;37.40;2.60;;;;;;5024047;28;20249;-85
2023/05/18 10:55:10;;;;;;;7.80;3.23;;;36.70;1.60;;;;;;5022303;28;20476;-83
2023/05/18 10:57:42;;;;;;;9.97;4.23;;;35.20;1.00;;;;;;5022051;28;20434;-84
2023/05/18 11:00:09;;;;;;;5.87;3.10;;;35.30;1.00;;;;;;5031466;28;20224;-83
2023/05/18 11:02:41;;;;;;;5.67;3.10;;;35.20;1.00;;;;;;5033607;28;20818;-84
2023/05/18 11:05:07;;;;;;;5.87;3.10;;;35.40;1.00;;;;;;5041143;28;20451;-84
2023/05/18 11:07:33;;;;;;;9.33;3.90;;;35.70;2.50;;;;;;5041457;28;20778;-85
2023/05/18 11:10:01;;;;;;;7.57;3.20;;;35.60;11.90;;;;;;5041953;28;20528;-84
2023/05/18 11:12:27;;;;;;;6.07;3.33;;;35.40;1.70;;;;;;5041465;28;20175;-86
2023/05/18 11:14:53;;;;;;;6.83;3.20;;;35.30;1.70;;;;;;5038455;28;20496;-83
2023/05/18 11:17:24;;;;;;;11.20;3.80;;;35.40;2.70;;;;;;5029632;28;20201;-84
2023/05/18 11:20:05;;;;;;;5.70;2.70;;;35.30;3.10;;;;;;5022424;28;20418;-82
2023/05/18 11:23:00;;;;;;;6.57;3.00;;;35.50;3.40;;;;;;5023880;28;20452;-85
2023/05/18 11:25:26;;;;;;;6.70;3.10;;;35.40;7.30;;;;;;5023013;28;20418;-85
2023/05/18 11:27:53;;;;;;;6.90;3.60;;;35.50;4.40;;;;;;5035687;28;20435;-85
2023/05/18 11:30:35;;;;;;;8.20;3.30;;;35.50;4.10;;;;;;5032565;28;20615;-85
2023/05/18 11:33:29;;;;;;;12.20;3.50;;;35.70;5.20;;;;;;5042348;28;20421;-85
2023/05/18 11:35:57;;;;;;;6.63;3.40;;;35.60;4.60;;;;;;5032155;28;20444;-85
2023/05/18 11:38:47;;;;;;;7.63;3.43;;;35.20;4.20;;;;;;5022522;28;20986;-85
2023/05/18 11:41:32;;;;;;;7.80;3.03;;;35.40;5.10;;;;;;5019062;28;20412;-84
2023/05/18 11:44:14;;;;;;;5.80;3.27;;;35.20;4.30;;;;;;5033775;28;20456;-85
2023/05/18 11:46:55;;;;;;;11.00;4.30;;;35.00;4.70;;;;;;5041288;28;20409;-85
2023/05/18 11:49:23;;;;;;;8.43;3.27;;;34.70;3.80;;;;;;5041900;28;20431;-83
2023/05/18 11:52:05;;;;;;;8.60;3.07;;;35.00;5.60;;;;;;5038319;28;20514;-83
2023/05/18 11:54:43;;;;;;;8.33;3.60;;;35.30;5.60;;;;;;5039387;28;20464;-85
2023/05/18 11:57:09;;;;;;;11.27;3.50;;;35.30;6.00;;;;;;5040416;28;20412;-84
2023/05/18 11:59:41;;;;;;;8.20;3.40;;;35.10;5.30;;;;;;5039500;28;20452;-84
2023/05/18 12:02:10;;;;;;;10.03;3.43;;;35.10;5.60;;;;;;5032214;28;20444;-84
2023/05/18 12:04:45;;;;;;;6.23;3.53;;;34.00;4.00;;;;;;5039828;28;20437;-85
2023/05/18 12:07:11;;;;;;;11.13;4.70;;;33.80;3.30;;;;;;5040021;28;20413;-85
2023/05/18 12:09:40;;;;;;;7.27;3.50;;;34.00;7.90;;;;;;5040180;28;20417;-84
2023/05/18 12:12:06;;;;;;;10.50;4.00;;;34.30;4.70;;;;;;5040332;28;20444;-85
2023/05/18 12:14:34;;;;;;;8.30;3.50;;;34.20;4.70;;;;;;5040786;28;20560;-85
2023/05/18 12:17:00;;;;;;;6.47;2.90;;;34.30;5.20;;;;;;5038643;28;20197;-86
2023/05/18 12:19:26;;;;;;;7.67;3.53;;;34.10;5.00;;;;;;5040112;28;20432;-85
2023/05/18 12:21:52;;;;;;;6.20;2.83;;;33.60;4.30;;;;;;5033780;28;20406;-84
2023/05/18 12:24:18;;;;;;;7.63;3.67;;;33.10;3.20;;;;;;5023385;28;20201;-85
2023/05/18 12:26:45;;;;;;;7.60;3.10;;;32.50;2.90;;;;;;5024017;28;20489;-85
2023/05/18 12:29:13;;;;;;;7.50;3.57;;;31.90;2.20;;;;;;5024104;28;20179;-84
2023/05/18 12:31:43;;;;;;;5.40;3.20;;;31.60;2.10;;;;;;5040905;28;20431;-83
2023/05/18 12:34:09;;;;;;;7.40;3.50;;;31.80;3.10;;;;;;5036589;28;20461;-83
2023/05/18 12:36:42;;;;;;;7.90;3.93;;;32.00;4.10;;;;;;5032298;28;20443;-85
2023/05/18 12:39:07;;;;;;;8.80;3.80;;;32.10;4.00;;;;;;5023217;28;20420;-85
2023/05/18 12:41:33;;;;;;;6.37;3.10;;;32.30;4.90;;;;;;5022119;28;20481;-85
2023/05/18 12:43:59;;;;;;;8.93;4.33;;;32.10;5.10;;;;;;5031275;28;20226;-85
2023/05/18 12:46:24;;;;;;;9.53;3.70;;;32.10;5.50;;;;;;5023124;28;20181;-86
2023/05/18 12:49:00;;;;;;;8.40;3.50;;;32.10;5.40;;;;;;5020794;28;20182;-85
2023/05/18 12:51:31;;;;;;;8.13;4.13;;;32.10;5.20;;;;;;5025980;28;20671;-86